createdAt,value
2019-05-29T00:01:39.044Z,8.69
2019-05-29T00:04:08.117Z,8.63
2019-05-29T00:06:36.412Z,8.69
2019-05-29T00:09:06.347Z,8.58
2019-05-29T00:11:34.534Z,8.60
2019-05-29T00:14:17.865Z,8.62
2019-05-29T00:16:32.655Z,8.52
2019-05-29T00:19:00.859Z,8.60
2019-05-29T00:21:29.048Z,8.45
2019-05-29T00:23:57.509Z,8.39
2019-05-29T00:26:26.301Z,8.31
2019-05-29T00:28:54.782Z,8.24
2019-05-29T00:31:22.983Z,8.23
2019-05-29T00:33:51.640Z,8.28
2019-05-29T00:36:20.110Z,8.43
2019-05-29T00:38:48.301Z,8.16
2019-05-29T00:41:17.144Z,8.13
2019-05-29T00:43:45.939Z,7.99
2019-05-29T00:46:15.564Z,7.90
2019-05-29T00:48:43.771Z,7.93
2019-05-29T00:51:12.964Z,7.97
2019-05-29T00:53:41.241Z,7.84
2019-05-29T00:56:10.436Z,7.77
2019-05-29T00:58:41.436Z,7.79
2019-05-29T01:01:11.435Z,7.63
2019-05-29T01:03:39.578Z,7.50
2019-05-29T01:06:07.780Z,7.57
2019-05-29T01:08:36.051Z,7.58
2019-05-29T01:11:04.288Z,7.59
2019-05-29T01:13:32.440Z,7.45
2019-05-29T01:16:00.640Z,7.30
2019-05-29T01:18:28.847Z,7.07
2019-05-29T01:20:57.028Z,7.05
2019-05-29T01:23:25.218Z,7.14
2019-05-29T01:25:53.438Z,6.78
2019-05-29T01:28:23.113Z,6.89
2019-05-29T01:30:51.879Z,6.84
2019-05-29T01:33:23.001Z,6.82
2019-05-29T01:35:49.960Z,6.92
2019-05-29T01:38:19.272Z,7.08
2019-05-29T01:40:47.593Z,6.77
2019-05-29T01:43:15.784Z,6.98
2019-05-29T01:45:43.979Z,7.03
2019-05-29T01:48:12.740Z,6.98
2019-05-29T01:50:40.946Z,6.91
2019-05-29T01:53:09.157Z,6.78
2019-05-29T01:55:37.354Z,6.71
2019-05-29T01:58:05.553Z,6.76
2019-05-29T02:00:33.751Z,6.82
2019-05-29T02:03:02.598Z,6.55
2019-05-29T02:05:30.806Z,6.42
2019-05-29T02:07:58.988Z,6.44
2019-05-29T02:10:27.184Z,6.23
2019-05-29T02:12:55.444Z,6.20
2019-05-29T02:15:31.724Z,6.24
2019-05-29T02:17:53.554Z,6.27
2019-05-29T02:20:23.186Z,6.34
2019-05-29T02:22:51.318Z,6.22
2019-05-29T02:25:22.343Z,6.16
2019-05-29T02:27:50.632Z,6.13
2019-05-29T02:30:21.076Z,6.13
2019-05-29T02:32:48.776Z,6.05
2019-05-29T02:35:17.989Z,6.10
2019-05-29T02:37:46.757Z,6.00
2019-05-29T02:40:15.390Z,6.15
2019-05-29T02:42:43.593Z,6.26
2019-05-29T02:45:11.782Z,6.21
2019-05-29T02:47:40.054Z,6.22
2019-05-29T02:50:08.518Z,6.17
2019-05-29T02:52:36.735Z,6.17
2019-05-29T02:55:07.660Z,6.20
2019-05-29T02:57:35.948Z,6.15
2019-05-29T03:00:06.052Z,6.25
2019-05-29T03:02:34.242Z,6.16
2019-05-29T03:05:02.438Z,6.13
2019-05-29T03:07:32.253Z,5.84
2019-05-29T03:10:00.554Z,5.89
2019-05-29T03:12:29.442Z,6.06
2019-05-29T03:14:58.123Z,6.13
2019-05-29T03:17:27.921Z,5.94
2019-05-29T03:19:56.255Z,6.05
2019-05-29T03:22:26.122Z,6.12
2019-05-29T03:24:54.746Z,6.09
2019-05-29T03:27:22.936Z,6.00
2019-05-29T03:29:51.898Z,6.04
2019-05-29T03:32:20.670Z,6.04
2019-05-29T03:34:48.878Z,5.88
2019-05-29T03:37:17.829Z,6.11
2019-05-29T03:39:46.016Z,6.09
2019-05-29T03:42:14.210Z,6.29
2019-05-29T03:44:42.428Z,6.10
2019-05-29T03:47:11.393Z,6.19
2019-05-29T03:49:39.872Z,6.22
2019-05-29T03:52:08.240Z,6.40
2019-05-29T03:54:36.431Z,6.46
2019-05-29T03:57:05.012Z,6.61
2019-05-29T03:59:35.115Z,6.61
2019-05-29T04:02:03.130Z,6.74
2019-05-29T04:04:32.845Z,6.89
2019-05-29T04:07:02.485Z,6.93
2019-05-29T04:09:31.407Z,7.14
2019-05-29T04:12:00.277Z,7.19
2019-05-29T04:14:29.751Z,7.17
2019-05-29T04:17:00.295Z,7.17
2019-05-29T04:19:30.041Z,7.34
2019-05-29T04:21:59.132Z,7.49
2019-05-29T04:24:28.024Z,7.66
2019-05-29T04:26:56.666Z,7.70
2019-05-29T04:29:24.859Z,7.80
2019-05-29T04:31:53.619Z,7.90
2019-05-29T04:34:21.817Z,7.77
2019-05-29T04:36:50.582Z,8.00
2019-05-29T04:39:18.774Z,7.91
2019-05-29T04:41:46.971Z,8.13
2019-05-29T04:44:15.938Z,8.27
2019-05-29T04:46:45.706Z,8.34
2019-05-29T04:49:13.897Z,8.36
2019-05-29T04:51:42.093Z,8.59
2019-05-29T04:54:10.793Z,8.64
2019-05-29T04:56:39.200Z,8.61
2019-05-29T04:59:09.002Z,8.61
2019-05-29T05:01:37.780Z,8.68
2019-05-29T05:04:06.061Z,8.98
2019-05-29T05:06:35.285Z,8.93
2019-05-29T05:09:05.066Z,8.99
2019-05-29T05:11:33.400Z,9.11
2019-05-29T05:14:01.969Z,9.23
2019-05-29T05:16:30.195Z,9.37
2019-05-29T05:18:58.398Z,9.61
2019-05-29T05:21:26.591Z,9.60
2019-05-29T05:23:56.953Z,9.49
2019-05-29T05:26:25.253Z,9.73
2019-05-29T05:28:54.089Z,9.83
2019-05-29T05:31:22.269Z,9.76
2019-05-29T05:33:50.506Z,9.75
2019-05-29T05:36:18.695Z,9.85
2019-05-29T05:38:47.670Z,9.97
2019-05-29T05:41:15.855Z,9.89
2019-05-29T05:43:44.820Z,9.89
2019-05-29T05:46:13.005Z,9.83
2019-05-29T05:48:41.658Z,9.95
2019-05-29T05:51:09.971Z,10.15
2019-05-29T05:53:38.171Z,10.21
2019-05-29T05:56:06.366Z,10.24
2019-05-29T05:58:35.690Z,10.36
2019-05-29T06:01:04.056Z,10.74
2019-05-29T06:03:32.255Z,10.86
2019-05-29T06:06:00.444Z,10.88
2019-05-29T06:08:28.649Z,11.03
2019-05-29T06:10:56.910Z,11.05
2019-05-29T06:13:25.112Z,11.28
2019-05-29T06:15:53.314Z,11.38
2019-05-29T06:18:23.083Z,11.54
2019-05-29T06:20:51.849Z,11.49
2019-05-29T06:23:20.055Z,11.64
2019-05-29T06:25:48.251Z,11.77
2019-05-29T06:28:17.215Z,11.78
2019-05-29T06:30:45.428Z,11.65
2019-05-29T06:33:13.617Z,11.70
2019-05-29T06:35:41.817Z,11.76
2019-05-29T06:38:10.016Z,11.86
2019-05-29T06:40:43.911Z,11.87
2019-05-29T06:43:23.854Z,12.11
2019-05-29T06:45:52.378Z,12.21
2019-05-29T06:48:41.722Z,12.29
2019-05-29T06:50:57.411Z,12.43
2019-05-29T06:53:24.995Z,12.26
2019-05-29T06:55:54.925Z,11.66
2019-05-29T06:58:23.183Z,11.66
2019-05-29T07:00:51.376Z,12.00
2019-05-29T07:03:19.587Z,12.07
2019-05-29T07:05:52.322Z,12.48
2019-05-29T07:08:24.149Z,12.46
2019-05-29T07:10:48.508Z,12.66
2019-05-29T07:13:16.796Z,12.83
2019-05-29T07:15:45.732Z,12.91
2019-05-29T07:18:15.017Z,13.04
2019-05-29T07:20:43.289Z,13.10
2019-05-29T07:23:11.479Z,13.20
2019-05-29T07:25:40.820Z,13.17
2019-05-29T07:28:09.932Z,13.39
2019-05-29T07:30:39.185Z,13.52
2019-05-29T07:33:07.582Z,13.14
2019-05-29T07:35:37.132Z,13.18
2019-05-29T07:38:05.448Z,13.45
2019-05-29T07:40:35.992Z,13.70
2019-05-29T07:43:04.320Z,13.91
2019-05-29T07:45:32.522Z,14.05
2019-05-29T07:48:00.714Z,13.87
2019-05-29T07:50:28.917Z,13.73
2019-05-29T07:52:57.138Z,13.26
2019-05-29T07:55:26.152Z,13.29
2019-05-29T07:57:54.374Z,12.91
2019-05-29T08:00:22.559Z,12.89
2019-05-29T08:02:50.748Z,12.55
2019-05-29T08:05:20.293Z,12.76
2019-05-29T08:07:49.682Z,12.76
2019-05-29T08:10:20.970Z,13.72
2019-05-29T08:12:54.266Z,13.72
2019-05-29T08:15:19.603Z,13.66
2019-05-29T08:17:48.461Z,14.02
2019-05-29T08:20:16.664Z,14.50
2019-05-29T08:22:46.439Z,14.93
2019-05-29T08:25:14.741Z,14.94
2019-05-29T08:27:42.931Z,15.31
2019-05-29T08:30:11.210Z,15.03
2019-05-29T08:32:40.819Z,14.47
2019-05-29T08:35:09.148Z,13.36
2019-05-29T08:37:37.346Z,13.82
2019-05-29T08:40:07.167Z,14.17
2019-05-29T08:42:35.358Z,14.51
2019-05-29T08:45:07.775Z,14.81
2019-05-29T08:47:35.956Z,15.10
2019-05-29T08:50:18.298Z,14.33
2019-05-29T08:52:37.526Z,14.84
2019-05-29T08:55:05.907Z,15.17
2019-05-29T08:57:34.101Z,15.34
2019-05-29T09:00:02.471Z,15.10
2019-05-29T09:02:30.665Z,14.89
2019-05-29T09:04:58.875Z,14.49
2019-05-29T09:07:27.070Z,14.24
2019-05-29T09:09:55.750Z,14.56
2019-05-29T09:12:24.743Z,15.23
2019-05-29T09:14:52.933Z,15.00
2019-05-29T09:17:22.147Z,15.07
2019-05-29T09:19:50.387Z,15.31
2019-05-29T09:22:19.182Z,14.92
2019-05-29T09:24:47.357Z,14.71
2019-05-29T09:27:17.146Z,15.13
2019-05-29T09:29:45.339Z,15.94
2019-05-29T09:32:15.075Z,16.08
2019-05-29T09:34:47.325Z,15.57
2019-05-29T09:37:14.192Z,14.96
2019-05-29T09:39:43.298Z,15.21
2019-05-29T09:42:11.497Z,16.19
2019-05-29T09:44:40.253Z,17.00
2019-05-29T09:47:08.568Z,17.37
2019-05-29T09:49:36.763Z,17.00
2019-05-29T09:52:05.133Z,16.08
2019-05-29T09:54:33.481Z,16.49
2019-05-29T09:57:02.838Z,16.00
2019-05-29T09:59:31.351Z,16.22
2019-05-29T10:02:03.492Z,15.87
2019-05-29T10:04:33.030Z,15.58
2019-05-29T10:07:02.410Z,15.41
2019-05-29T10:09:32.042Z,15.55
2019-05-29T10:12:04.107Z,16.39
2019-05-29T10:14:30.154Z,17.02
2019-05-29T10:17:02.089Z,17.17
2019-05-29T10:19:28.283Z,17.40
2019-05-29T10:21:58.318Z,18.39
2019-05-29T10:24:27.084Z,18.39
2019-05-29T10:26:55.542Z,18.10
2019-05-29T10:29:25.175Z,17.62
2019-05-29T10:31:53.631Z,17.80
2019-05-29T10:34:21.852Z,17.98
2019-05-29T10:36:53.019Z,18.00
2019-05-29T10:39:19.978Z,18.25
2019-05-29T10:41:48.862Z,17.99
2019-05-29T10:44:17.159Z,18.42
2019-05-29T10:46:48.384Z,18.99
2019-05-29T10:49:16.152Z,18.50
2019-05-29T10:52:00.267Z,18.40
2019-05-29T10:54:14.276Z,17.45
2019-05-29T10:56:42.479Z,17.07
2019-05-29T10:59:11.515Z,16.72
2019-05-29T11:01:39.722Z,16.40
2019-05-29T11:04:08.684Z,16.56
2019-05-29T11:06:40.534Z,16.95
2019-05-29T11:09:07.173Z,17.77
2019-05-29T11:11:35.373Z,18.11
2019-05-29T11:14:03.833Z,18.56
2019-05-29T11:16:32.126Z,19.29
2019-05-29T11:19:00.302Z,19.64
2019-05-29T11:21:28.634Z,19.71
2019-05-29T11:23:58.205Z,18.85
2019-05-29T11:26:27.135Z,18.66
2019-05-29T11:28:56.530Z,19.33
2019-05-29T11:31:24.910Z,19.03
2019-05-29T11:33:53.239Z,18.30
2019-05-29T11:36:21.380Z,17.41
2019-05-29T11:38:50.500Z,17.45
2019-05-29T11:41:26.168Z,18.03
2019-05-29T11:43:50.666Z,18.64
2019-05-29T11:46:18.956Z,19.42
2019-05-29T11:48:47.324Z,19.49
2019-05-29T11:51:15.516Z,19.76
2019-05-29T11:53:43.719Z,19.89
2019-05-29T11:56:12.039Z,20.29
2019-05-29T11:58:41.010Z,21.06
2019-05-29T12:01:09.195Z,20.62
2019-05-29T12:03:57.844Z,19.90
2019-05-29T12:06:07.395Z,19.22
2019-05-29T12:08:35.599Z,18.78
2019-05-29T12:11:06.938Z,18.39
2019-05-29T12:13:34.490Z,17.27
2019-05-29T12:16:02.863Z,16.98
2019-05-29T12:18:31.059Z,17.02
2019-05-29T12:21:01.105Z,16.89
2019-05-29T12:23:29.189Z,16.84
2019-05-29T12:26:18.823Z,16.82
2019-05-29T12:28:27.605Z,16.76
2019-05-29T12:30:56.893Z,16.98
2019-05-29T12:33:25.182Z,17.43
2019-05-29T12:35:53.366Z,17.62
2019-05-29T12:38:21.606Z,18.30
2019-05-29T12:40:49.772Z,18.73
2019-05-29T12:43:27.331Z,18.75
2019-05-29T12:45:48.335Z,19.07
2019-05-29T12:48:16.903Z,19.46
2019-05-29T12:50:45.424Z,20.45
2019-05-29T12:53:29.021Z,20.25
2019-05-29T12:55:43.505Z,20.00
2019-05-29T12:58:11.752Z,20.21
2019-05-29T13:00:39.947Z,20.37
2019-05-29T13:03:08.616Z,20.17
2019-05-29T13:05:36.810Z,19.26
2019-05-29T13:08:05.414Z,19.08
2019-05-29T13:10:33.552Z,18.36
2019-05-29T13:13:08.430Z,18.15
2019-05-29T13:15:31.726Z,17.94
2019-05-29T13:18:03.983Z,17.54
2019-05-29T13:20:29.959Z,17.59
2019-05-29T13:22:59.645Z,16.78
2019-05-29T13:25:28.165Z,17.07
2019-05-29T13:27:59.868Z,17.51
2019-05-29T13:30:28.424Z,17.51
2019-05-29T13:33:00.066Z,17.57
2019-05-29T13:35:26.660Z,17.82
2019-05-29T13:37:54.957Z,19.87
2019-05-29T13:40:23.152Z,19.87
2019-05-29T13:42:51.382Z,20.50
2019-05-29T13:45:21.115Z,19.55
2019-05-29T13:47:49.881Z,19.35
2019-05-29T13:50:18.239Z,19.16
2019-05-29T13:52:46.440Z,18.78
2019-05-29T13:55:14.634Z,18.44
2019-05-29T13:57:42.840Z,18.16
2019-05-29T14:00:33.941Z,17.96
2019-05-29T14:02:43.730Z,17.94
2019-05-29T14:05:11.924Z,17.72
2019-05-29T14:07:40.119Z,17.75
2019-05-29T14:10:09.616Z,17.69
2019-05-29T14:12:39.632Z,17.94
2019-05-29T14:15:09.835Z,18.82
2019-05-29T14:17:37.604Z,19.23
2019-05-29T14:20:06.786Z,19.23
2019-05-29T14:22:35.027Z,19.56
2019-05-29T14:25:05.311Z,19.95
2019-05-29T14:27:34.040Z,20.10
2019-05-29T14:30:03.866Z,20.36
2019-05-29T14:32:32.940Z,20.31
2019-05-29T14:35:04.285Z,20.35
2019-05-29T14:37:31.583Z,20.23
2019-05-29T14:40:01.604Z,20.69
2019-05-29T14:42:30.445Z,21.07
2019-05-29T14:44:59.244Z,21.04
2019-05-29T14:47:29.014Z,21.51
2019-05-29T14:49:57.219Z,21.50
2019-05-29T14:52:25.411Z,21.76
2019-05-29T14:54:53.618Z,22.03
2019-05-29T14:57:26.049Z,21.25
2019-05-29T14:59:51.755Z,20.95
2019-05-29T15:02:23.902Z,21.44
2019-05-29T15:04:49.856Z,21.25
2019-05-29T15:07:22.800Z,21.62
2019-05-29T15:09:50.010Z,20.87
2019-05-29T15:12:18.192Z,21.38
2019-05-29T15:14:46.392Z,20.87
2019-05-29T15:17:15.494Z,20.95
2019-05-29T15:19:43.874Z,20.58
2019-05-29T15:22:13.960Z,20.58
2019-05-29T15:24:59.651Z,20.92
2019-05-29T15:27:12.229Z,20.74
2019-05-29T15:29:40.434Z,20.26
2019-05-29T15:32:10.367Z,20.13
2019-05-29T15:34:40.147Z,20.13
2019-05-29T15:37:12.192Z,19.58
2019-05-29T15:39:39.838Z,19.17
2019-05-29T15:42:08.932Z,19.38
2019-05-29T15:44:37.218Z,18.95
2019-05-29T15:47:06.768Z,19.39
2019-05-29T15:49:36.668Z,19.28
2019-05-29T15:52:05.027Z,19.59
2019-05-29T15:54:33.243Z,19.48
2019-05-29T15:57:01.414Z,19.71
2019-05-29T15:59:29.604Z,19.35
2019-05-29T16:01:58.582Z,19.32
2019-05-29T16:04:27.258Z,19.35
2019-05-29T16:06:56.060Z,19.10
2019-05-29T16:09:24.253Z,18.74
2019-05-29T16:11:52.494Z,18.14
2019-05-29T16:14:20.666Z,17.84
2019-05-29T16:16:48.863Z,17.46
2019-05-29T16:19:18.295Z,16.69
2019-05-29T16:21:46.544Z,15.90
2019-05-29T16:24:14.758Z,16.32
2019-05-29T16:26:42.949Z,16.32
2019-05-29T16:29:12.256Z,16.73
2019-05-29T16:31:40.722Z,16.97
2019-05-29T16:34:08.974Z,17.19
2019-05-29T16:36:37.406Z,17.10
2019-05-29T16:39:09.016Z,16.83
2019-05-29T16:41:37.213Z,16.87
2019-05-29T16:44:05.406Z,17.04
2019-05-29T16:46:33.615Z,17.26
2019-05-29T16:49:02.484Z,16.86
2019-05-29T16:51:30.681Z,16.41
2019-05-29T16:53:58.868Z,15.75
2019-05-29T16:56:27.080Z,15.09
2019-05-29T16:58:55.273Z,14.84
2019-05-29T17:01:23.957Z,14.48
2019-05-29T17:03:52.249Z,14.21
2019-05-29T17:06:20.448Z,13.84
2019-05-29T17:08:48.647Z,13.65
2019-05-29T17:11:16.845Z,13.55
2019-05-29T17:13:45.043Z,13.22
2019-05-29T17:16:14.364Z,13.35
2019-05-29T17:18:43.173Z,13.29
2019-05-29T17:21:11.381Z,13.15
2019-05-29T17:23:40.353Z,13.09
2019-05-29T17:26:11.065Z,13.18
2019-05-29T17:28:38.305Z,13.14
2019-05-29T17:31:06.920Z,13.02
2019-05-29T17:33:35.119Z,12.81
2019-05-29T17:36:03.315Z,12.78
2019-05-29T17:38:31.518Z,12.60
2019-05-29T17:40:59.740Z,12.61
2019-05-29T17:43:28.721Z,12.67
2019-05-29T17:45:57.283Z,12.62
2019-05-29T17:48:27.535Z,12.64
2019-05-29T17:50:55.940Z,12.70
2019-05-29T17:53:28.848Z,12.58
2019-05-29T17:55:57.267Z,12.52
2019-05-29T17:58:26.687Z,12.34
2019-05-29T18:00:54.932Z,12.35
2019-05-29T18:03:24.233Z,12.30
2019-05-29T18:05:52.583Z,12.17
2019-05-29T18:08:20.826Z,12.16
2019-05-29T18:10:49.026Z,12.18
2019-05-29T18:13:17.239Z,12.07
2019-05-29T18:15:45.443Z,12.06
2019-05-29T18:18:14.405Z,11.83
2019-05-29T18:20:42.596Z,11.92
2019-05-29T18:23:10.803Z,11.80
2019-05-29T18:25:38.992Z,11.69
2019-05-29T18:28:07.191Z,11.62
2019-05-29T18:30:35.386Z,11.42
2019-05-29T18:33:03.583Z,11.47
2019-05-29T18:35:31.772Z,11.37
2019-05-29T18:37:59.978Z,11.38
2019-05-29T18:40:28.499Z,11.41
2019-05-29T18:42:56.700Z,11.55
2019-05-29T18:45:26.258Z,11.81
2019-05-29T18:47:55.192Z,11.94
2019-05-29T18:50:23.665Z,12.10
2019-05-29T18:52:52.674Z,11.86
2019-05-29T18:55:20.916Z,11.79
2019-05-29T18:57:49.116Z,11.75
2019-05-29T19:00:17.849Z,11.52
2019-05-29T19:02:48.811Z,11.33
2019-05-29T19:05:17.013Z,11.30
2019-05-29T19:07:45.586Z,11.33
2019-05-29T19:10:14.354Z,11.47
2019-05-29T19:12:42.591Z,11.60
2019-05-29T19:15:10.791Z,11.59
2019-05-29T19:17:38.996Z,11.55
2019-05-29T19:20:07.220Z,11.66
2019-05-29T19:22:35.639Z,11.69
2019-05-29T19:25:05.155Z,11.57
2019-05-29T19:27:41.602Z,11.50
2019-05-29T19:30:05.420Z,11.48
2019-05-29T19:32:34.009Z,11.58
2019-05-29T19:35:02.736Z,11.68
2019-05-29T19:37:32.107Z,11.82
2019-05-29T19:40:11.183Z,11.97
2019-05-29T19:42:39.385Z,12.03
2019-05-29T19:45:08.318Z,12.06
2019-05-29T19:47:36.989Z,12.21
2019-05-29T19:50:11.191Z,12.37
2019-05-29T19:52:38.581Z,12.30
2019-05-29T19:55:07.078Z,12.35
2019-05-29T19:57:53.916Z,12.40
2019-05-29T20:00:08.117Z,12.31
2019-05-29T20:02:37.893Z,12.32
2019-05-29T20:05:06.380Z,12.41
2019-05-29T20:07:35.251Z,12.46
2019-05-29T20:10:03.842Z,12.40
2019-05-29T20:12:33.760Z,12.20
2019-05-29T20:15:02.012Z,12.12
2019-05-29T20:17:30.533Z,12.23
2019-05-29T20:19:58.872Z,12.16
2019-05-29T20:22:28.467Z,11.98
2019-05-29T20:24:57.507Z,11.99
2019-05-29T20:27:26.268Z,11.94
2019-05-29T20:29:54.616Z,11.93
2019-05-29T20:32:22.861Z,11.91
2019-05-29T20:34:54.055Z,11.88
2019-05-29T20:44:18.985Z,11.92
2019-05-29T20:46:47.180Z,11.91
2019-05-29T20:49:15.387Z,11.88
2019-05-29T20:51:43.583Z,11.83
2019-05-29T20:54:11.807Z,11.76
2019-05-29T20:56:40.063Z,11.80
2019-05-29T20:59:08.355Z,11.80
2019-05-29T21:01:40.946Z,11.88
2019-05-29T21:04:06.606Z,11.86
2019-05-29T21:06:34.798Z,11.58
2019-05-29T21:09:03.002Z,11.48
2019-05-29T21:11:31.200Z,11.43
2019-05-29T21:14:00.187Z,11.33
2019-05-29T21:16:28.361Z,11.26
2019-05-29T21:18:56.572Z,11.24
2019-05-29T21:21:24.765Z,11.34
2019-05-29T21:23:52.974Z,11.29
2019-05-29T21:26:21.948Z,11.25
2019-05-29T21:28:50.922Z,11.28
2019-05-29T21:31:19.325Z,11.32
2019-05-29T21:33:49.341Z,11.32
2019-05-29T21:36:17.692Z,11.49
2019-05-29T21:38:46.478Z,11.53
2019-05-29T21:41:15.344Z,11.44
2019-05-29T21:43:44.692Z,11.29
2019-05-29T21:46:13.084Z,11.36
2019-05-29T21:48:41.283Z,11.36
2019-05-29T21:51:09.544Z,11.32
2019-05-29T21:53:37.743Z,11.29
2019-05-29T21:56:05.956Z,11.37
2019-05-29T21:58:34.449Z,11.44
2019-05-29T22:01:03.223Z,11.48
2019-05-29T22:03:31.476Z,11.46
2019-05-29T22:05:59.650Z,11.44
2019-05-29T22:08:29.180Z,11.45
2019-05-29T22:10:57.555Z,11.43
2019-05-29T22:13:25.752Z,11.40
2019-05-29T22:15:54.809Z,11.43
2019-05-29T22:18:23.110Z,11.54
2019-05-29T22:21:46.172Z,11.47
2019-05-29T22:24:14.392Z,11.59
2019-05-29T22:26:42.621Z,11.41
2019-05-29T22:29:17.834Z,11.23
2019-05-29T22:31:40.822Z,11.22
2019-05-29T22:34:09.044Z,11.14
2019-05-29T22:36:40.282Z,11.08
2019-05-29T22:39:08.473Z,11.00
2019-05-29T22:41:36.691Z,10.95
2019-05-29T22:44:04.895Z,10.92
2019-05-29T22:46:33.112Z,10.78
2019-05-29T22:49:02.046Z,10.93
2019-05-29T22:51:30.347Z,10.99
2019-05-29T22:53:58.563Z,10.96
2019-05-29T22:56:26.984Z,10.87
2019-05-29T22:58:56.022Z,10.90
2019-05-29T23:01:24.286Z,10.86
2019-05-29T23:03:52.503Z,10.77
2019-05-29T23:06:20.802Z,10.85
2019-05-29T23:08:52.053Z,11.02
2019-05-29T23:11:20.426Z,10.91
2019-05-29T23:13:48.619Z,10.82
2019-05-29T23:16:16.857Z,10.88
2019-05-29T23:18:45.055Z,11.00
2019-05-29T23:21:13.277Z,11.07
2019-05-29T23:23:41.464Z,11.19
2019-05-29T23:26:09.664Z,11.26
2019-05-29T23:28:38.632Z,11.16
2019-05-29T23:31:06.832Z,11.13
2019-05-29T23:33:35.358Z,11.00
2019-05-29T23:36:03.560Z,11.07
2019-05-29T23:38:31.747Z,11.19
2019-05-29T23:40:59.947Z,11.23
2019-05-29T23:43:28.156Z,11.16
2019-05-29T23:45:57.413Z,11.19
2019-05-29T23:48:25.701Z,11.07
2019-05-29T23:50:53.913Z,11.08
2019-05-29T23:53:22.111Z,11.16
2019-05-29T23:55:50.786Z,11.23
2019-05-29T23:58:18.984Z,11.35
